createdAt,value
2018-08-25T00:00:37.176Z,96129.87
2018-08-25T00:03:05.568Z,96134.55
2018-08-25T00:05:34.356Z,96129.34
2018-08-25T00:08:02.696Z,96126.50
2018-08-25T00:10:31.015Z,96133.86
2018-08-25T00:13:06.705Z,96131.61
2018-08-25T00:15:35.968Z,96129.32
2018-08-25T00:18:04.460Z,96130.80
2018-08-25T00:20:32.826Z,96129.61
2018-08-25T00:23:01.192Z,96127.53
2018-08-25T00:25:29.700Z,96125.30
2018-08-25T00:27:58.050Z,96128.96
2018-08-25T00:30:31.782Z,96122.96
2018-08-25T00:33:00.100Z,96126.59
2018-08-25T00:35:28.430Z,96126.43
2018-08-25T00:37:56.876Z,96131.19
2018-08-25T00:40:25.236Z,96128.87
2018-08-25T00:42:53.717Z,96131.48
2018-08-25T00:45:22.327Z,96134.83
2018-08-25T00:47:50.770Z,96139.02
2018-08-25T00:50:19.143Z,96130.27
2018-08-25T00:52:47.602Z,96135.05
2018-08-25T00:55:15.999Z,96140.03
2018-08-25T00:57:44.406Z,96138.77
2018-08-25T01:00:12.841Z,96142.19
2018-08-25T01:02:41.193Z,96140.40
2018-08-25T01:05:09.682Z,96141.14
2018-08-25T01:07:38.150Z,96139.52
2018-08-25T01:10:06.535Z,96133.56
2018-08-25T01:12:34.944Z,96140.67
2018-08-25T01:15:03.342Z,96135.47
2018-08-25T01:17:31.708Z,96135.29
2018-08-25T01:20:00.048Z,96142.30
2018-08-25T01:22:28.590Z,96142.08
2018-08-25T01:24:56.938Z,96142.11
2018-08-25T01:27:25.366Z,96139.12
2018-08-25T01:29:53.856Z,96139.02
2018-08-25T01:32:22.198Z,96137.17
2018-08-25T01:34:50.600Z,96132.04
2018-08-25T01:37:19.067Z,96135.38
2018-08-25T01:39:47.400Z,96136.14
2018-08-25T01:42:15.706Z,96133.88
2018-08-25T01:44:44.146Z,96138.03
2018-08-25T01:47:12.482Z,96135.41
2018-08-25T01:49:40.996Z,96128.72
2018-08-25T01:52:09.418Z,96126.19
2018-08-25T01:54:37.763Z,96133.00
2018-08-25T01:57:06.100Z,96126.20
2018-08-25T01:59:34.635Z,96120.05
2018-08-25T02:02:03.156Z,96119.23
2018-08-25T02:04:31.472Z,96119.23
2018-08-25T02:06:59.840Z,96114.91
2018-08-25T02:09:28.189Z,96113.91
2018-08-25T02:11:56.563Z,96116.91
2018-08-25T02:14:24.988Z,96119.36
2018-08-25T02:16:53.332Z,96120.98
2018-08-25T02:19:21.661Z,96116.45
2018-08-25T02:21:50.100Z,96119.36
2018-08-25T02:24:18.441Z,96113.89
2018-08-25T02:26:46.759Z,96120.86
2018-08-25T02:29:15.204Z,96119.03
2018-08-25T02:31:43.532Z,96116.44
2018-08-25T02:34:11.850Z,96119.19
2018-08-25T02:36:40.484Z,96118.69
2018-08-25T02:39:11.283Z,96113.44
2018-08-25T02:41:39.632Z,96110.62
2018-08-25T02:44:08.019Z,96111.03
2018-08-25T02:46:36.339Z,96115.48
2018-08-25T02:49:04.808Z,96114.64
2018-08-25T02:51:33.636Z,96113.63
2018-08-25T02:54:02.148Z,96107.84
2018-08-25T02:56:30.499Z,96102.00
2018-08-25T02:58:58.952Z,96099.53
2018-08-25T03:01:27.292Z,96098.12
2018-08-25T03:03:55.663Z,96100.19
2018-08-25T03:06:24.052Z,96088.28
2018-08-25T03:08:52.372Z,96090.37
2018-08-25T03:11:20.715Z,96098.74
2018-08-25T03:13:49.258Z,96092.89
2018-08-25T03:16:17.534Z,96089.94
2018-08-25T03:18:45.860Z,96096.00
2018-08-25T03:21:15.056Z,96086.66
2018-08-25T03:23:43.363Z,96084.80
2018-08-25T03:26:11.729Z,96087.80
2018-08-25T03:28:40.197Z,96078.98
2018-08-25T03:31:09.436Z,96079.95
2018-08-25T03:33:37.782Z,96078.22
2018-08-25T03:36:06.208Z,96081.02
2018-08-25T03:38:34.551Z,96077.01
2018-08-25T03:41:02.883Z,96079.36
2018-08-25T03:43:31.415Z,96076.89
2018-08-25T03:45:59.791Z,96076.61
2018-08-25T03:48:28.108Z,96083.16
2018-08-25T03:50:56.536Z,96079.39
2018-08-25T03:53:24.900Z,96081.14
2018-08-25T03:55:53.255Z,96073.34
2018-08-25T03:58:21.703Z,96087.12
2018-08-25T04:00:50.030Z,96082.59
2018-08-25T04:03:20.463Z,96083.55
2018-08-25T04:05:48.940Z,96082.11
2018-08-25T04:08:17.320Z,96083.67
2018-08-25T04:10:45.694Z,96087.56
2018-08-25T04:13:14.304Z,96080.16
2018-08-25T04:15:42.687Z,96075.55
2018-08-25T04:18:11.012Z,96083.55
2018-08-25T04:20:39.384Z,96084.05
2018-08-25T04:23:07.724Z,96084.77
2018-08-25T04:25:36.097Z,96084.08
2018-08-25T04:28:04.472Z,96090.84
2018-08-25T04:30:32.859Z,96086.95
2018-08-25T04:33:01.183Z,96085.30
2018-08-25T04:35:29.567Z,96084.69
2018-08-25T04:37:58.092Z,96089.09
2018-08-25T04:40:33.027Z,96091.04
2018-08-25T04:43:01.340Z,96093.27
2018-08-25T04:45:29.692Z,96092.78
2018-08-25T04:47:58.160Z,96091.01
2018-08-25T04:50:26.499Z,96094.81
2018-08-25T04:52:54.832Z,96089.79
2018-08-25T04:55:23.200Z,96081.17
2018-08-25T04:57:51.520Z,96082.07
2018-08-25T05:00:19.855Z,96079.60
2018-08-25T05:02:48.331Z,96071.80
2018-08-25T05:05:16.680Z,96074.18
2018-08-25T05:07:45.002Z,96071.92
2018-08-25T05:10:13.440Z,96076.33
2018-08-25T05:12:41.770Z,96079.32
2018-08-25T05:15:10.095Z,96075.75
2018-08-25T05:17:38.661Z,96082.05
2018-08-25T05:20:07.120Z,96083.79
2018-08-25T05:22:35.436Z,96081.23
2018-08-25T05:25:03.872Z,96078.97
2018-08-25T05:27:32.182Z,96083.30
2018-08-25T05:30:00.508Z,96084.08
2018-08-25T05:32:28.959Z,96098.75
2018-08-25T05:34:57.286Z,96099.36
2018-08-25T05:37:25.719Z,96099.69
2018-08-25T05:39:54.516Z,96108.27
2018-08-25T05:42:22.955Z,96107.46
2018-08-25T05:44:51.387Z,96110.73
2018-08-25T05:47:19.860Z,96108.59
2018-08-25T05:49:48.187Z,96114.02
2018-08-25T05:52:16.532Z,96116.48
2018-08-25T05:54:45.092Z,96109.00
2018-08-25T05:57:13.484Z,96111.05
2018-08-25T05:59:41.875Z,96111.87
2018-08-25T06:02:10.356Z,96110.73
2018-08-25T06:04:38.693Z,96109.20
2018-08-25T06:07:07.124Z,96106.97
2018-08-25T06:09:35.552Z,96104.06
2018-08-25T06:12:03.893Z,96100.09
2018-08-25T06:14:32.230Z,96104.93
2018-08-25T06:17:00.807Z,96104.81
2018-08-25T06:19:29.122Z,96099.59
2018-08-25T06:21:57.472Z,96102.98
2018-08-25T06:24:25.876Z,96093.03
2018-08-25T06:26:54.224Z,96089.76
2018-08-25T06:29:22.608Z,96087.81
2018-08-25T06:31:51.153Z,96095.81
2018-08-25T06:34:19.582Z,96092.25
2018-08-25T06:36:47.961Z,96091.31
2018-08-25T06:39:16.348Z,96092.65
2018-08-25T06:41:44.946Z,96095.80
2018-08-25T06:44:13.275Z,96092.30
2018-08-25T06:46:41.860Z,96093.34
2018-08-25T06:49:10.176Z,96091.48
2018-08-25T06:51:38.607Z,96092.20
2018-08-25T06:54:07.096Z,96093.78
2018-08-25T06:56:35.428Z,96093.95
2018-08-25T06:59:04.017Z,96089.76
2018-08-25T07:01:32.706Z,96090.69
2018-08-25T07:04:01.072Z,96092.92
2018-08-25T07:06:29.504Z,96095.19
2018-08-25T07:08:58.194Z,96092.43
2018-08-25T07:11:26.576Z,96095.30
2018-08-25T07:13:54.949Z,96100.92
2018-08-25T07:16:23.400Z,96095.27
2018-08-25T07:18:51.761Z,96099.39
2018-08-25T07:21:20.192Z,96095.39
2018-08-25T07:23:48.557Z,96089.42
2018-08-25T07:26:17.010Z,96095.12
2018-08-25T07:28:45.398Z,96087.00
2018-08-25T07:31:14.008Z,96092.22
2018-08-25T07:33:42.676Z,96090.08
2018-08-25T07:36:11.009Z,96093.84
2018-08-25T07:38:39.688Z,96086.67
2018-08-25T07:41:08.041Z,96088.63
2018-08-25T07:43:36.756Z,96090.24
2018-08-25T07:46:05.272Z,96081.30
2018-08-25T07:48:33.685Z,96087.45
2018-08-25T07:51:02.109Z,96076.97
2018-08-25T07:53:30.632Z,96078.58
2018-08-25T07:55:59.172Z,96084.00
2018-08-25T07:58:27.635Z,96083.67
2018-08-25T08:00:55.985Z,96085.80
2018-08-25T08:03:24.356Z,96086.28
2018-08-25T08:05:52.830Z,96084.94
2018-08-25T08:08:21.256Z,96078.27
2018-08-25T08:10:49.587Z,96085.02
2018-08-25T08:13:18.069Z,96092.29
2018-08-25T08:15:46.554Z,96093.53
2018-08-25T08:18:14.956Z,96088.28
2018-08-25T08:20:43.305Z,96095.98
2018-08-25T08:23:18.424Z,96093.23
2018-08-25T08:25:46.750Z,96087.45
2018-08-25T08:28:15.191Z,96091.93
2018-08-25T08:30:43.644Z,96090.78
2018-08-25T08:33:12.340Z,96091.33
2018-08-25T08:35:40.768Z,96087.97
2018-08-25T08:38:09.335Z,96087.27
2018-08-25T08:40:37.923Z,96082.35
2018-08-25T08:43:06.703Z,96080.31
2018-08-25T08:45:35.866Z,96080.23
2018-08-25T08:48:04.192Z,96084.63
2018-08-25T08:50:32.693Z,96083.58
2018-08-25T08:53:01.241Z,96088.08
2018-08-25T08:55:29.643Z,96093.42
2018-08-25T08:57:58.006Z,96089.03
2018-08-25T09:00:26.583Z,96085.48
2018-08-25T09:02:55.112Z,96092.16
2018-08-25T09:05:23.530Z,96083.76
2018-08-25T09:07:52.002Z,96085.31
2018-08-25T09:10:20.456Z,96084.41
2018-08-25T09:12:48.813Z,96081.95
2018-08-25T09:15:17.292Z,96088.58
2018-08-25T09:17:45.648Z,96075.31
2018-08-25T09:20:13.984Z,96074.64
2018-08-25T09:22:42.492Z,96067.78
2018-08-25T09:25:10.893Z,96068.74
2018-08-25T09:27:39.244Z,96067.77
2018-08-25T09:30:08.143Z,96071.07
2018-08-25T09:32:36.516Z,96063.23
2018-08-25T09:35:05.001Z,96067.20
2018-08-25T09:37:33.844Z,96062.78
2018-08-25T09:40:02.308Z,96060.47
2018-08-25T09:42:30.651Z,96065.39
2018-08-25T09:44:59.257Z,96058.20
2018-08-25T09:47:28.193Z,96056.47
2018-08-25T09:49:56.610Z,96053.45
2018-08-25T09:52:25.089Z,96051.70
2018-08-25T09:54:53.509Z,96054.08
2018-08-25T09:57:21.841Z,96054.75
2018-08-25T09:59:50.303Z,96049.34
2018-08-25T10:02:18.611Z,96047.95
2018-08-25T10:04:46.987Z,96046.09
2018-08-25T10:07:15.461Z,96036.88
2018-08-25T10:09:43.778Z,96036.81
2018-08-25T10:12:12.201Z,96030.48
2018-08-25T10:14:40.748Z,96035.22
2018-08-25T10:17:09.088Z,96034.53
2018-08-25T10:19:37.421Z,96031.04
2018-08-25T10:22:05.865Z,96028.84
2018-08-25T10:24:34.228Z,96021.90
2018-08-25T10:27:02.597Z,96027.95
2018-08-25T10:29:30.949Z,96023.75
2018-08-25T10:31:59.407Z,96020.14
2018-08-25T10:34:27.817Z,96020.64
2018-08-25T10:36:56.299Z,96022.06
2018-08-25T10:39:24.627Z,96019.95
2018-08-25T10:41:53.084Z,96021.73
2018-08-25T10:44:21.547Z,96014.33
2018-08-25T10:46:49.867Z,96013.08
2018-08-25T10:49:18.308Z,96015.11
2018-08-25T10:51:46.740Z,96009.35
2018-08-25T10:54:15.063Z,96009.89
2018-08-25T10:56:43.455Z,96017.68
2018-08-25T10:59:11.848Z,96013.66
2018-08-25T11:01:40.177Z,96016.34
2018-08-25T11:04:08.535Z,96008.13
2018-08-25T11:06:37.002Z,96011.66
2018-08-25T11:09:09.190Z,96011.55
2018-08-25T11:11:37.904Z,96010.39
2018-08-25T11:14:06.304Z,96012.23
2018-08-25T11:16:34.759Z,96009.05
2018-08-25T11:19:03.154Z,96009.05
2018-08-25T11:21:31.525Z,96006.78
2018-08-25T11:23:59.948Z,96010.05
2018-08-25T11:26:28.429Z,96008.05
2018-08-25T11:28:57.079Z,96013.61
2018-08-25T11:31:25.626Z,96018.64
2018-08-25T11:33:54.096Z,96022.44
2018-08-25T11:36:22.621Z,96020.97
2018-08-25T11:38:51.218Z,96022.16
2018-08-25T11:41:19.636Z,96023.61
2018-08-25T11:43:48.370Z,96020.73
2018-08-25T11:46:16.758Z,96028.27
2018-08-25T11:48:45.319Z,96026.30
2018-08-25T11:51:13.826Z,96019.35
2018-08-25T11:53:42.142Z,96018.27
2018-08-25T11:56:10.509Z,96015.27
2018-08-25T11:58:38.853Z,96012.92
2018-08-25T12:01:07.184Z,96005.36
2018-08-25T12:03:35.628Z,96002.83
2018-08-25T12:06:03.871Z,95998.25
2018-08-25T12:08:32.306Z,95990.03
2018-08-25T12:11:00.850Z,95995.72
2018-08-25T12:13:29.223Z,95993.03
2018-08-25T12:15:57.601Z,95994.98
2018-08-25T12:18:26.145Z,95994.71
2018-08-25T12:20:54.550Z,95994.03
2018-08-25T12:23:22.895Z,95996.61
2018-08-25T12:25:51.379Z,95990.97
2018-08-25T12:28:19.818Z,95990.28
2018-08-25T12:30:48.177Z,95989.44
2018-08-25T12:33:16.544Z,95982.84
2018-08-25T12:35:44.936Z,95982.69
2018-08-25T12:38:13.280Z,95970.14
2018-08-25T12:40:41.705Z,95970.79
2018-08-25T12:43:10.079Z,95979.30
2018-08-25T12:45:38.453Z,95982.98
2018-08-25T12:48:06.850Z,95979.88
2018-08-25T12:50:35.261Z,95980.23
2018-08-25T12:53:03.777Z,95980.58
2018-08-25T12:55:32.968Z,95974.33
2018-08-25T12:58:01.431Z,95976.58
2018-08-25T13:00:29.955Z,95979.68
2018-08-25T13:02:58.415Z,95977.37
2018-08-25T13:05:26.787Z,95975.14
2018-08-25T13:07:55.275Z,95979.31
2018-08-25T13:10:23.699Z,95977.09
2018-08-25T13:12:52.180Z,95977.44
2018-08-25T13:15:20.527Z,95973.30
2018-08-25T13:17:48.993Z,95978.22
2018-08-25T13:20:18.095Z,95977.52
2018-08-25T13:22:46.438Z,95983.30
2018-08-25T13:25:14.928Z,95978.95
2018-08-25T13:27:43.433Z,95981.91
2018-08-25T13:30:11.988Z,95995.19
2018-08-25T13:32:40.390Z,95988.97
2018-08-25T13:35:08.724Z,95988.48
2018-08-25T13:37:37.053Z,95991.87
2018-08-25T13:40:06.024Z,95993.66
2018-08-25T13:42:34.377Z,95996.62
2018-08-25T13:45:02.828Z,96000.09
2018-08-25T13:47:31.376Z,95995.48
2018-08-25T13:49:59.768Z,96003.63
2018-08-25T13:52:28.224Z,96014.75
2018-08-25T13:54:57.020Z,96013.31
2018-08-25T13:57:25.472Z,96015.25
2018-08-25T13:59:53.808Z,96021.45
2018-08-25T14:02:22.464Z,96026.29
2018-08-25T14:04:50.853Z,96026.39
2018-08-25T14:07:19.232Z,96029.03
2018-08-25T14:09:47.795Z,96031.36
2018-08-25T14:12:16.296Z,96045.30
2018-08-25T14:14:44.658Z,96048.00
2018-08-25T14:17:13.243Z,96049.40
2018-08-25T14:19:41.633Z,96051.08
2018-08-25T14:22:10.243Z,96059.86
2018-08-25T14:24:38.812Z,96062.06
2018-08-25T14:27:07.191Z,96059.88
2018-08-25T14:29:35.514Z,96065.34
2018-08-25T14:32:04.231Z,96068.84
2018-08-25T14:34:32.577Z,96074.22
2018-08-25T14:37:00.965Z,96074.24
2018-08-25T14:39:29.548Z,96081.33
2018-08-25T14:41:57.889Z,96087.39
2018-08-25T14:44:26.363Z,96081.23
2018-08-25T14:46:54.737Z,96085.96
2018-08-25T14:49:23.155Z,96078.59
2018-08-25T14:51:51.510Z,96084.94
2018-08-25T14:54:20.204Z,96082.56
2018-08-25T14:56:48.785Z,96088.73
2018-08-25T14:59:17.117Z,96094.67
2018-08-25T15:01:45.501Z,96094.80
2018-08-25T15:04:13.837Z,96098.17
2018-08-25T15:06:42.165Z,96106.87
2018-08-25T15:09:12.851Z,96106.13
2018-08-25T15:11:41.543Z,96117.73
2018-08-25T15:14:10.454Z,96113.52
2018-08-25T15:16:38.816Z,96117.11
2018-08-25T15:19:07.336Z,96124.31
2018-08-25T15:21:35.724Z,96128.92
2018-08-25T15:24:04.139Z,96132.29
2018-08-25T15:26:32.528Z,96131.25
2018-08-25T15:29:00.875Z,96130.73
2018-08-25T15:31:29.220Z,96132.23
2018-08-25T15:33:57.675Z,96128.39
2018-08-25T15:36:26.142Z,96132.67
2018-08-25T15:38:54.591Z,96130.93
2018-08-25T15:41:22.997Z,96133.56
2018-08-25T15:43:51.327Z,96136.63
2018-08-25T15:46:19.892Z,96127.15
2018-08-25T15:48:48.243Z,96133.50
2018-08-25T15:51:16.607Z,96133.31
2018-08-25T15:53:45.092Z,96129.70
2018-08-25T15:56:13.615Z,96128.88
2018-08-25T15:58:42.195Z,96127.55
2018-08-25T16:01:10.773Z,96134.34
2018-08-25T16:03:39.187Z,96137.09
2018-08-25T16:06:08.066Z,96133.00
2018-08-25T16:08:36.727Z,96133.34
2018-08-25T16:11:05.337Z,96130.56
2018-08-25T16:13:33.779Z,96133.88
2018-08-25T16:16:02.373Z,96131.14
2018-08-25T16:18:30.761Z,96128.50
2018-08-25T16:20:59.115Z,96131.41
2018-08-25T16:23:27.547Z,96134.29
2018-08-25T16:25:55.907Z,96129.80
2018-08-25T16:28:24.247Z,96128.34
2018-08-25T16:30:52.695Z,96130.00
2018-08-25T16:33:21.207Z,96125.62
2018-08-25T16:35:49.620Z,96129.13
2018-08-25T16:38:18.149Z,96119.78
2018-08-25T16:40:46.468Z,96121.03
2018-08-25T16:43:15.451Z,96116.91
2018-08-25T16:45:43.943Z,96114.86
2018-08-25T16:48:12.279Z,96115.03
2018-08-25T16:50:40.979Z,96113.70
2018-08-25T16:53:09.861Z,96119.15
2018-08-25T16:55:38.199Z,96117.53
2018-08-25T16:58:06.752Z,96126.87
2018-08-25T17:00:35.605Z,96123.70
2018-08-25T17:03:03.985Z,96128.72
2018-08-25T17:05:38.934Z,96126.58
2018-08-25T17:08:07.482Z,96133.16
2018-08-25T17:10:35.833Z,96139.28
2018-08-25T17:13:04.411Z,96141.77
2018-08-25T17:15:32.731Z,96139.92
2018-08-25T17:18:01.053Z,96140.64
2018-08-25T17:20:30.447Z,96143.91
2018-08-25T17:22:58.833Z,96152.52
2018-08-25T17:25:27.343Z,96154.06
2018-08-25T17:27:55.890Z,96151.50
2018-08-25T17:30:24.214Z,96160.02
2018-08-25T17:32:52.529Z,96160.31
2018-08-25T17:35:20.969Z,96157.66
2018-08-25T17:37:49.368Z,96173.21
2018-08-25T17:40:17.689Z,96172.69
2018-08-25T17:42:46.211Z,96167.85
2018-08-25T17:45:14.669Z,96166.29
2018-08-25T17:47:43.025Z,96172.23
2018-08-25T17:50:11.612Z,96168.81
2018-08-25T17:52:40.003Z,96170.67
2018-08-25T17:55:08.379Z,96170.71
2018-08-25T17:57:36.970Z,96175.23
2018-08-25T18:00:05.897Z,96179.52
2018-08-25T18:02:34.540Z,96174.23
2018-08-25T18:05:03.032Z,96184.38
2018-08-25T18:07:31.391Z,96189.33
2018-08-25T18:09:59.834Z,96195.17
2018-08-25T18:12:28.415Z,96201.50
2018-08-25T18:14:56.819Z,96202.45
2018-08-25T18:17:25.263Z,96198.74
2018-08-25T18:19:54.011Z,96200.58
2018-08-25T18:22:22.497Z,96210.67
2018-08-25T18:24:50.851Z,96212.09
2018-08-25T18:27:19.434Z,96212.72
2018-08-25T18:29:48.393Z,96205.06
2018-08-25T18:32:16.828Z,96213.81
2018-08-25T18:34:45.227Z,96216.25
2018-08-25T18:37:13.546Z,96218.43
2018-08-25T18:39:41.863Z,96216.96
2018-08-25T18:42:11.382Z,96223.95
2018-08-25T18:44:39.739Z,96225.84
2018-08-25T18:47:08.059Z,96231.27
2018-08-25T18:49:36.555Z,96232.83
2018-08-25T18:52:05.007Z,96233.19
2018-08-25T18:54:33.498Z,96235.18
2018-08-25T18:57:01.876Z,96240.56
2018-08-25T18:59:30.203Z,96241.80
2018-08-25T19:01:58.605Z,96245.18
2018-08-25T19:04:27.257Z,96239.50
2018-08-25T19:06:55.672Z,96242.55
2018-08-25T19:09:24.084Z,96243.06
2018-08-25T19:11:52.699Z,96247.49
2018-08-25T19:14:21.173Z,96244.13
2018-08-25T19:16:49.495Z,96246.08
2018-08-25T19:19:18.143Z,96246.91
2018-08-25T19:21:46.494Z,96236.83
2018-08-25T19:24:17.723Z,96240.64
2018-08-25T19:26:46.256Z,96238.08
2018-08-25T19:29:14.579Z,96233.17
2018-08-25T19:31:42.892Z,96241.55
2018-08-25T19:34:11.275Z,96237.20
2018-08-25T19:36:39.660Z,96240.66
2018-08-25T19:39:09.543Z,96248.73
2018-08-25T19:41:38.164Z,96250.78
2018-08-25T19:44:06.544Z,96254.34
2018-08-25T19:46:35.088Z,96246.73
2018-08-25T19:49:03.511Z,96244.06
2018-08-25T19:51:32.052Z,96245.73
2018-08-25T19:54:00.528Z,96244.88
2018-08-25T19:56:29.000Z,96241.81
2018-08-25T19:58:57.453Z,96249.58
2018-08-25T20:01:25.815Z,96249.20
2018-08-25T20:03:54.249Z,96250.86
2018-08-25T20:06:22.819Z,96256.86
2018-08-25T20:08:51.619Z,96255.66
2018-08-25T20:11:20.336Z,96250.53
2018-08-25T20:13:48.864Z,96254.96
2018-08-25T20:16:18.088Z,96262.32
2018-08-25T20:18:46.476Z,96257.19
2018-08-25T20:21:14.870Z,96262.52
2018-08-25T20:23:43.360Z,96262.81
2018-08-25T20:26:11.936Z,96271.17
2018-08-25T20:28:40.943Z,96273.73
2018-08-25T20:31:09.280Z,96275.24
2018-08-25T20:33:37.900Z,96275.77
2018-08-25T20:36:06.592Z,96277.39
2018-08-25T20:38:35.132Z,96270.44
2018-08-25T20:41:03.608Z,96280.56
2018-08-25T20:43:31.988Z,96276.33
2018-08-25T20:46:00.416Z,96276.59
2018-08-25T20:48:29.022Z,96278.11
2018-08-25T20:50:57.370Z,96274.78
2018-08-25T20:53:25.950Z,96278.66
2018-08-25T20:55:55.048Z,96280.06
2018-08-25T20:58:23.644Z,96273.20
2018-08-25T21:00:52.083Z,96276.00
2018-08-25T21:03:20.420Z,96272.38
2018-08-25T21:05:48.750Z,96265.91
2018-08-25T21:08:17.443Z,96272.20
2018-08-25T21:10:45.875Z,96273.08
2018-08-25T21:13:14.195Z,96276.26
2018-08-25T21:15:42.555Z,96266.43
2018-08-25T21:18:11.020Z,96266.87
2018-08-25T21:20:39.501Z,96266.69
2018-08-25T21:23:07.837Z,96261.73
2018-08-25T21:25:36.396Z,96272.27
2018-08-25T21:28:04.745Z,96280.51
2018-08-25T21:30:33.105Z,96278.73
2018-08-25T21:33:01.904Z,96285.71
2018-08-25T21:35:30.337Z,96285.20
2018-08-25T21:37:58.674Z,96283.05
2018-08-25T21:40:27.280Z,96282.02
2018-08-25T21:42:55.587Z,96288.56
2018-08-25T21:45:23.950Z,96285.12
2018-08-25T21:47:52.384Z,96274.88
2018-08-25T21:50:20.816Z,96275.59
2018-08-25T21:52:49.140Z,96273.03
2018-08-25T21:55:17.660Z,96274.81
2018-08-25T21:57:46.044Z,96276.84
2018-08-25T22:00:14.487Z,96272.92
2018-08-25T22:02:42.873Z,96276.28
2018-08-25T22:05:11.192Z,96281.45
2018-08-25T22:07:39.564Z,96281.45
2018-08-25T22:10:08.288Z,96275.20
2018-08-25T22:12:36.868Z,96269.26
2018-08-25T22:15:05.331Z,96266.27
2018-08-25T22:17:33.880Z,96256.45
2018-08-25T22:20:02.282Z,96255.33
2018-08-25T22:22:30.625Z,96255.19
2018-08-25T22:24:59.078Z,96256.40
2018-08-25T22:27:27.421Z,96256.40
2018-08-25T22:29:55.745Z,96254.62
2018-08-25T22:32:24.350Z,96259.94
2018-08-25T22:34:52.660Z,96255.02
2018-08-25T22:37:20.982Z,96260.52
2018-08-25T22:39:49.590Z,96266.33
2018-08-25T22:42:17.994Z,96262.22
2018-08-25T22:44:46.459Z,96265.84
2018-08-25T22:47:15.144Z,96264.06
2018-08-25T22:49:43.527Z,96258.56
2018-08-25T22:52:12.100Z,96263.03
2018-08-25T22:54:40.620Z,96259.75
2018-08-25T22:57:08.959Z,96263.43
2018-08-25T22:59:37.295Z,96257.97
2018-08-25T23:02:05.825Z,96268.81
2018-08-25T23:04:34.144Z,96271.02
2018-08-25T23:07:02.472Z,96269.18
2018-08-25T23:09:30.852Z,96269.58
2018-08-25T23:11:59.548Z,96261.33
2018-08-25T23:14:27.928Z,96272.59
2018-08-25T23:16:56.307Z,96272.96
2018-08-25T23:19:24.664Z,96280.69
2018-08-25T23:21:52.995Z,96280.75
2018-08-25T23:24:21.491Z,96281.69
2018-08-25T23:26:49.815Z,96285.80
2018-08-25T23:29:18.150Z,96291.63
2018-08-25T23:31:46.749Z,96294.47
2018-08-25T23:34:15.076Z,96299.59
2018-08-25T23:36:43.468Z,96296.25
2018-08-25T23:39:11.992Z,96294.61
2018-08-25T23:41:40.400Z,96288.97
2018-08-25T23:44:08.784Z,96287.34
2018-08-25T23:46:37.255Z,96276.38
2018-08-25T23:49:05.931Z,96276.44
2018-08-25T23:51:34.402Z,96285.44
2018-08-25T23:54:02.759Z,96282.44
2018-08-25T23:56:31.171Z,96284.44
2018-08-25T23:58:59.719Z,96283.17
